< < Back
Terminal Aerodrome Forecast


Current Version              Previous Versions:   1  2  3  4  5  6  7  8  9  

Terminal Aerodrome Forecast

174
FTUS44 KBMX 061722
TAFMGM
TAF
KMGM 061722Z 0618/0718 33004KT P6SM BKN250=



Latest METAR

370
SAUS80 KWBC 061800 RRB
MTRMGM
METAR KMGM 061753Z AUTO 25004KT 10SM CLR 11/M07 A3033 RMK AO2 SLP271
T01111067 10111 21028 58019


USA.gov is the U.S. government's official web portal to all federal, state and local government web resources and services.